Time;durP1;ratioP1;P1;durP2;ratioP2;P2;SDS_P1;SDS_P2;PMS_P1;PMS_P2;Temp;Humidity;BMP_temperature;BMP_pressure;BME280_temperature;BME280_humidity;BME280_pressure;Samples;Min_cycle;Max_cycle;Signal;HPM_P1;HPM_P2
2021/04/24 00:01:48;;;;;;;76.93;36.95;;;3.20;99.90;;;;;;5071379;28;20119;-78
2021/04/24 00:04:13;;;;;;;78.65;36.25;;;3.10;99.90;;;;;;5072485;28;20115;-78
2021/04/24 00:06:39;;;;;;;73.15;31.10;;;3.10;99.90;;;;;;5073072;28;20044;-78
2021/04/24 00:09:06;;;;;;;80.97;37.05;;;3.00;99.90;;;;;;5074519;28;20029;-78
2021/04/24 00:11:32;;;;;;;78.25;37.67;;;3.00;99.90;;;;;;5074351;28;20482;-78
2021/04/24 00:13:58;;;;;;;79.07;36.22;;;3.00;99.90;;;;;;5073103;28;20024;-78
2021/04/24 00:16:23;;;;;;;76.45;34.17;;;3.10;99.90;;;;;;5073032;28;20058;-77
2021/04/24 00:18:49;;;;;;;76.68;36.08;;;3.00;99.90;;;;;;5074240;28;20107;-77
2021/04/24 00:21:15;;;;;;;85.05;39.15;;;3.00;99.90;;;;;;5074361;28;20035;-77
2021/04/24 00:23:41;;;;;;;69.50;32.63;;;3.00;99.90;;;;;;5069413;28;20363;-78
2021/04/24 00:26:07;;;;;;;70.78;32.28;;;3.00;99.90;;;;;;5073407;28;20025;-78
2021/04/24 00:28:33;;;;;;;62.67;31.15;;;3.00;99.90;;;;;;5072755;28;20132;-78
2021/04/24 00:30:59;;;;;;;52.85;29.13;;;3.00;99.90;;;;;;5074048;28;20513;-78
2021/04/24 00:33:25;;;;;;;61.30;30.73;;;3.00;99.90;;;;;;5072773;28;20048;-78
2021/04/24 00:35:51;;;;;;;78.93;39.72;;;3.00;99.90;;;;;;5072656;28;20070;-78
2021/04/24 00:38:17;;;;;;;75.95;35.67;;;2.90;99.90;;;;;;5072611;28;20103;-78
2021/04/24 00:40:43;;;;;;;60.58;32.35;;;2.90;99.90;;;;;;5072549;28;20115;-78
2021/04/24 00:43:09;;;;;;;65.32;33.22;;;2.90;99.90;;;;;;5073709;28;20025;-78
2021/04/24 00:45:34;;;;;;;61.13;31.23;;;2.90;99.90;;;;;;5073565;28;20032;-77
2021/04/24 00:48:01;;;;;;;65.10;30.73;;;2.90;99.90;;;;;;5071243;28;20021;-78
2021/04/24 00:50:30;;;;;;;64.22;32.70;;;2.90;99.90;;;;;;5069691;28;20021;-78
2021/04/24 00:52:56;;;;;;;67.00;29.67;;;2.90;99.90;;;;;;5073477;28;20474;-78
2021/04/24 00:55:22;;;;;;;67.90;30.20;;;2.90;99.90;;;;;;5072354;28;20016;-78
2021/04/24 00:57:48;;;;;;;65.80;32.00;;;3.00;99.90;;;;;;5072157;28;20407;-78
2021/04/24 01:00:15;;;;;;;70.68;32.67;;;2.90;99.90;;;;;;5071574;28;20029;-78
2021/04/24 01:02:41;;;;;;;68.15;34.05;;;2.90;99.90;;;;;;5071708;28;20107;-78
2021/04/24 01:05:14;;;;;;;75.63;37.30;;;2.90;99.90;;;;;;5071935;28;20119;-79
2021/04/24 01:07:41;;;;;;;;;;;2.90;99.90;;;;;;5072233;28;20161;-78
2021/04/24 01:10:08;;;;;;;73.10;33.08;;;2.90;99.90;;;;;;5072310;28;20381;-78
2021/04/24 01:12:34;;;;;;;64.68;32.83;;;2.80;99.90;;;;;;5071735;28;20025;-78
2021/04/24 01:15:00;;;;;;;64.10;33.10;;;2.80;99.90;;;;;;5072984;28;20033;-78
2021/04/24 01:17:26;;;;;;;62.65;31.77;;;2.80;99.90;;;;;;5071809;28;20020;-78
2021/04/24 01:19:52;;;;;;;65.75;31.70;;;2.80;99.90;;;;;;5071858;28;20032;-78
2021/04/24 01:22:18;;;;;;;63.15;31.85;;;2.80;99.90;;;;;;5071292;28;20034;-78
2021/04/24 01:24:43;;;;;;;73.40;32.90;;;2.70;99.90;;;;;;5072711;28;20025;-78
2021/04/24 01:27:09;;;;;;;62.42;30.00;;;2.70;99.90;;;;;;5073010;28;20013;-78
2021/04/24 01:29:37;;;;;;;59.95;30.52;;;2.70;99.90;;;;;;5071643;28;20099;-78
2021/04/24 01:32:04;;;;;;;59.45;31.05;;;2.70;99.90;;;;;;5070742;28;20093;-79
2021/04/24 01:34:31;;;;;;;55.55;28.35;;;2.70;99.90;;;;;;5071496;28;20028;-78
2021/04/24 01:36:59;;;;;;;63.58;29.73;;;2.70;99.90;;;;;;5068109;28;20124;-79
2021/04/24 01:39:25;;;;;;;56.83;28.33;;;2.60;99.90;;;;;;5072870;28;20099;-78
2021/04/24 01:41:51;;;;;;;60.90;29.35;;;2.60;99.90;;;;;;5071401;28;20038;-78
2021/04/24 01:44:17;;;;;;;57.42;29.05;;;2.60;99.90;;;;;;5072710;28;20032;-78
2021/04/24 01:46:43;;;;;;;68.30;32.70;;;2.60;99.90;;;;;;5072419;28;20082;-78
2021/04/24 01:49:08;;;;;;;67.28;32.42;;;2.60;99.90;;;;;;5072564;28;20123;-78
2021/04/24 01:51:34;;;;;;;67.75;33.80;;;2.60;99.90;;;;;;5072106;28;20056;-78
2021/04/24 01:54:00;;;;;;;73.65;34.92;;;2.60;99.90;;;;;;5067972;28;20021;-78
2021/04/24 01:56:26;;;;;;;72.45;32.50;;;2.60;99.90;;;;;;5071052;28;20474;-78
2021/04/24 01:58:52;;;;;;;67.47;32.42;;;2.60;99.90;;;;;;5072914;28;20044;-78
2021/04/24 02:01:18;;;;;;;81.95;39.83;;;2.60;99.90;;;;;;5061695;28;20025;-78
2021/04/24 02:03:47;;;;;;;81.88;38.33;;;2.60;99.90;;;;;;5053085;28;20021;-78
2021/04/24 02:06:14;;;;;;;72.22;33.03;;;2.60;99.90;;;;;;5051731;28;20078;-78
2021/04/24 02:08:44;;;;;;;58.80;29.70;;;2.50;99.90;;;;;;5051751;28;20021;-78
2021/04/24 02:11:11;;;;;;;76.40;34.03;;;2.50;99.90;;;;;;5051697;28;20067;-77
2021/04/24 02:13:40;;;;;;;54.35;24.70;;;2.50;99.90;;;;;;5052946;28;20100;-78
2021/04/24 02:16:11;;;;;;;57.45;27.15;;;2.50;99.90;;;;;;5052911;28;20051;-78
2021/04/24 02:18:36;;;;;;;57.03;27.73;;;2.40;99.90;;;;;;5052877;28;20033;-78
2021/04/24 02:21:03;;;;;;;53.45;23.60;;;2.40;99.90;;;;;;5054338;28;20070;-78
2021/04/24 02:23:34;;;;;;;55.97;26.42;;;2.30;99.90;;;;;;5072891;28;20031;-79
2021/04/24 02:26:01;;;;;;;53.22;26.73;;;2.40;99.90;;;;;;5072472;28;20024;-78
2021/04/24 02:28:27;;;;;;;48.03;24.15;;;2.30;99.90;;;;;;5071505;28;20028;-78
2021/04/24 02:30:52;;;;;;;62.10;28.33;;;2.30;99.90;;;;;;5072843;28;20104;-78
2021/04/24 02:33:18;;;;;;;125.30;45.13;;;2.40;99.90;;;;;;5072758;28;20488;-78
2021/04/24 02:35:48;;;;;;;156.65;52.10;;;2.40;99.90;;;;;;5072769;28;20028;-78
2021/04/24 02:38:26;;;;;;;101.18;41.00;;;2.40;99.90;;;;;;5071344;28;20024;-78
2021/04/24 02:40:53;;;;;;;64.28;32.65;;;2.30;99.90;;;;;;5072767;28;20025;-78
2021/04/24 02:43:20;;;;;;;96.28;41.78;;;2.30;99.90;;;;;;5072661;28;20016;-78
2021/04/24 02:45:47;;;;;;;124.82;52.35;;;2.30;99.90;;;;;;5072564;28;20032;-78
2021/04/24 02:48:14;;;;;;;118.35;50.97;;;2.30;99.90;;;;;;5072655;28;20031;-78
2021/04/24 02:50:40;;;;;;;96.78;40.40;;;2.30;99.90;;;;;;5072680;28;20032;-77
2021/04/24 02:53:06;;;;;;;90.25;38.97;;;2.30;99.90;;;;;;5052719;28;20029;-78
2021/04/24 02:55:32;;;;;;;92.18;39.70;;;2.30;99.90;;;;;;5052555;28;20029;-78
2021/04/24 02:57:58;;;;;;;68.75;31.50;;;2.30;99.90;;;;;;5051038;28;20063;-78
2021/04/24 03:00:25;;;;;;;61.80;28.67;;;2.30;99.90;;;;;;5052533;28;20017;-78
2021/04/24 03:03:14;;;;;;;75.75;35.28;;;2.30;99.90;;;;;;5052436;28;20592;-78
2021/04/24 03:05:41;;;;;;;59.63;28.55;;;2.30;99.90;;;;;;5052436;28;20037;-78
2021/04/24 03:08:08;;;;;;;55.25;28.90;;;2.30;99.90;;;;;;5052324;28;20363;-78
2021/04/24 03:10:35;;;;;;;55.67;29.10;;;2.30;99.90;;;;;;5051132;28;20033;-77
2021/04/24 03:13:02;;;;;;;103.28;44.83;;;2.30;99.90;;;;;;5051119;28;20053;-78
2021/04/24 03:15:27;;;;;;;74.82;36.45;;;2.30;99.90;;;;;;5052427;28;20064;-78
2021/04/24 03:17:53;;;;;;;66.53;31.95;;;2.30;99.90;;;;;;5052246;28;20029;-78
2021/04/24 03:20:20;;;;;;;55.70;29.33;;;2.30;99.90;;;;;;5052261;28;20033;-78
2021/04/24 03:22:46;;;;;;;51.38;26.63;;;2.30;99.90;;;;;;5064048;28;20036;-78
2021/04/24 03:25:13;;;;;;;53.10;26.27;;;2.30;99.90;;;;;;5076024;28;20062;-78
2021/04/24 03:27:39;;;;;;;60.67;28.52;;;2.20;99.90;;;;;;5075980;28;20020;-78
2021/04/24 03:30:07;;;;;;;58.42;29.92;;;2.20;99.90;;;;;;5075961;28;20067;-78
2021/04/24 03:32:34;;;;;;;54.80;27.67;;;2.20;99.90;;;;;;5075902;28;20044;-78
2021/04/24 03:34:59;;;;;;;57.92;28.23;;;2.10;99.90;;;;;;5075890;28;20020;-78
2021/04/24 03:37:26;;;;;;;50.70;24.95;;;2.20;99.90;;;;;;5075812;28;20081;-78
2021/04/24 03:39:52;;;;;;;51.70;25.30;;;2.10;99.90;;;;;;5075821;28;20028;-78
2021/04/24 03:42:18;;;;;;;57.47;25.52;;;2.10;99.90;;;;;;5074341;28;20024;-78
2021/04/24 03:44:44;;;;;;;48.83;24.33;;;2.00;99.90;;;;;;5074366;28;20095;-78
2021/04/24 03:47:09;;;;;;;55.95;26.48;;;2.00;99.90;;;;;;5075588;28;20470;-78
2021/04/24 03:49:35;;;;;;;49.03;27.20;;;2.00;99.90;;;;;;5075739;28;20055;-78
2021/04/24 03:52:02;;;;;;;45.42;25.13;;;2.00;99.90;;;;;;5075136;28;20017;-78
2021/04/24 03:54:27;;;;;;;44.83;22.25;;;2.00;99.90;;;;;;5075529;28;20470;-78
2021/04/24 03:56:54;;;;;;;47.58;22.50;;;2.00;99.90;;;;;;5075405;28;20050;-78
2021/04/24 03:59:19;;;;;;;45.00;23.17;;;2.00;99.90;;;;;;5075337;28;20028;-78
2021/04/24 04:01:45;;;;;;;46.25;22.50;;;2.10;99.90;;;;;;5075333;28;20029;-78
2021/04/24 04:04:10;;;;;;;41.97;20.98;;;2.10;99.90;;;;;;5075392;28;20082;-78
2021/04/24 04:06:36;;;;;;;38.13;21.55;;;2.20;99.90;;;;;;5057382;28;20036;-78
2021/04/24 04:09:02;;;;;;;45.28;22.13;;;2.30;99.90;;;;;;5054005;28;20025;-78
2021/04/24 04:11:28;;;;;;;49.42;24.35;;;2.40;99.90;;;;;;5054038;28;20021;-78
2021/04/24 04:13:54;;;;;;;44.15;23.90;;;2.50;99.90;;;;;;5053796;28;20387;-78
2021/04/24 04:16:19;;;;;;;46.03;23.42;;;2.70;99.90;;;;;;5055096;28;20032;-78
2021/04/24 04:18:45;;;;;;;48.00;23.92;;;2.80;99.90;;;;;;5053713;28;20056;-78
2021/04/24 04:21:12;;;;;;;41.90;19.85;;;2.90;99.90;;;;;;5060285;28;20046;-78
2021/04/24 04:23:39;;;;;;;35.83;19.52;;;3.00;99.90;;;;;;5074997;28;20123;-78
2021/04/24 04:26:05;;;;;;;39.85;19.30;;;3.00;99.90;;;;;;5074829;28;20037;-78
2021/04/24 04:28:31;;;;;;;42.10;18.60;;;3.10;99.90;;;;;;5073563;28;20021;-78
2021/04/24 04:30:56;;;;;;;36.45;18.42;;;3.00;99.90;;;;;;5074819;28;20033;-78
2021/04/24 04:33:23;;;;;;;31.27;17.13;;;3.00;99.90;;;;;;5073337;28;20028;-78
2021/04/24 04:35:49;;;;;;;41.97;19.35;;;3.10;99.90;;;;;;5073848;28;20096;-78
2021/04/24 04:38:15;;;;;;;30.05;15.95;;;3.10;99.90;;;;;;5074659;28;20074;-78
2021/04/24 04:40:42;;;;;;;35.42;18.90;;;3.10;99.90;;;;;;5074637;28;20029;-78
2021/04/24 04:43:08;;;;;;;34.55;16.25;;;3.00;99.90;;;;;;5073258;28;20146;-78
2021/04/24 04:45:34;;;;;;;29.17;15.77;;;2.90;99.90;;;;;;5074452;28;20544;-79
2021/04/24 04:48:00;;;;;;;36.58;16.83;;;2.80;99.90;;;;;;5074333;28;20496;-78
2021/04/24 04:50:29;;;;;;;36.83;17.85;;;2.90;99.90;;;;;;5072374;28;20107;-78
2021/04/24 04:52:56;;;;;;;33.30;17.42;;;3.00;99.90;;;;;;5058969;28;20511;-78
2021/04/24 04:55:22;;;;;;;42.95;19.52;;;3.10;99.90;;;;;;5070330;28;20032;-78
2021/04/24 04:57:48;;;;;;;31.45;16.30;;;3.20;99.90;;;;;;5070911;28;20033;-78
2021/04/24 05:00:18;;;;;;;37.38;16.88;;;3.30;99.90;;;;;;5066233;28;20075;-78
2021/04/24 05:02:45;;;;;;;30.42;16.77;;;3.30;99.90;;;;;;5072166;28;20056;-78
2021/04/24 05:05:12;;;;;;;32.95;15.95;;;3.30;99.90;;;;;;5052725;28;20106;-78
2021/04/24 05:07:40;;;;;;;31.95;16.77;;;3.40;99.90;;;;;;5054293;28;20045;-77
2021/04/24 05:10:06;;;;;;;66.78;27.23;;;3.50;99.90;;;;;;5052399;28;20021;-78
2021/04/24 05:12:31;;;;;;;90.13;34.05;;;3.60;99.90;;;;;;5064919;28;20393;-78
2021/04/24 05:14:57;;;;;;;164.00;56.63;;;3.70;99.90;;;;;;5058667;28;20017;-77
2021/04/24 05:17:23;;;;;;;123.35;41.80;;;3.70;99.90;;;;;;5053937;28;20119;-78
2021/04/24 05:19:49;;;;;;;171.38;58.75;;;3.80;99.90;;;;;;5052566;28;20024;-77
2021/04/24 05:22:15;;;;;;;82.28;32.28;;;3.90;99.90;;;;;;5054110;28;20029;-78
2021/04/24 05:24:40;;;;;;;209.35;64.68;;;4.00;99.90;;;;;;5053759;28;20024;-78
2021/04/24 05:27:06;;;;;;;140.18;45.90;;;4.10;99.90;;;;;;5053694;28;20466;-78
2021/04/24 05:29:32;;;;;;;43.65;17.38;;;4.20;99.80;;;;;;5053747;28;20029;-77
2021/04/24 05:31:58;;;;;;;59.80;23.42;;;4.40;98.90;;;;;;5053564;28;20040;-78
2021/04/24 05:34:23;;;;;;;55.92;20.00;;;4.30;93.00;;;;;;5052400;28;20021;-78
2021/04/24 05:36:49;;;;;;;53.15;20.48;;;4.40;94.50;;;;;;5053544;28;20041;-78
2021/04/24 05:39:14;;;;;;;23.13;9.75;;;4.50;91.70;;;;;;5052290;28;20151;-79
2021/04/24 05:41:40;;;;;;;21.65;10.63;;;4.60;88.70;;;;;;5052146;28;20025;-79
2021/04/24 05:44:07;;;;;;;26.95;11.27;;;4.80;85.10;;;;;;5053335;28;20024;-79
2021/04/24 05:46:33;;;;;;;25.95;12.15;;;4.90;84.50;;;;;;5056388;28;20039;-79
2021/04/24 05:48:58;;;;;;;19.88;10.23;;;5.10;86.30;;;;;;5071973;28;20029;-79
2021/04/24 05:51:26;;;;;;;19.25;8.75;;;5.30;86.60;;;;;;5071557;28;20389;-78
2021/04/24 05:53:53;;;;;;;18.90;8.25;;;5.40;78.70;;;;;;5072481;28;20060;-79
2021/04/24 05:56:21;;;;;;;16.38;9.05;;;5.60;81.20;;;;;;5071085;28;20062;-78
2021/04/24 05:58:48;;;;;;;17.60;9.50;;;5.80;82.10;;;;;;5069815;28;20111;-79
2021/04/24 06:01:14;;;;;;;18.80;9.70;;;6.00;83.20;;;;;;5070445;28;20287;-81
2021/04/24 06:03:39;;;;;;;19.33;7.15;;;6.10;73.70;;;;;;5071831;28;20033;-79
2021/04/24 06:06:05;;;;;;;15.80;7.03;;;6.10;69.30;;;;;;5059685;28;20028;-79
2021/04/24 06:08:31;;;;;;;17.73;7.97;;;6.20;67.60;;;;;;5051705;28;20028;-79
2021/04/24 06:10:57;;;;;;;17.35;7.60;;;6.30;63.10;;;;;;5051799;28;20021;-79
2021/04/24 06:13:23;;;;;;;14.43;6.45;;;6.40;58.70;;;;;;5051582;28;20171;-79
2021/04/24 06:15:49;;;;;;;12.75;6.47;;;6.50;59.10;;;;;;5051628;28;20226;-78
2021/04/24 06:18:16;;;;;;;20.58;7.90;;;6.50;58.60;;;;;;5052654;28;20056;-78
2021/04/24 06:20:42;;;;;;;9.13;4.68;;;6.40;57.10;;;;;;5050923;28;20031;-78
2021/04/24 06:23:07;;;;;;;36.28;15.60;;;6.30;56.30;;;;;;5071636;28;20417;-78
2021/04/24 06:25:33;;;;;;;42.78;16.98;;;6.30;54.90;;;;;;5069257;28;20556;-78
2021/04/24 06:27:59;;;;;;;13.52;7.18;;;6.40;53.60;;;;;;5060231;28;20050;-79
2021/04/24 06:30:24;;;;;;;16.00;7.53;;;6.60;56.40;;;;;;5059920;28;20039;-79
2021/04/24 06:32:52;;;;;;;10.45;4.80;;;6.70;56.30;;;;;;5062674;28;20064;-79
2021/04/24 06:35:20;;;;;;;10.75;6.65;;;6.90;55.40;;;;;;5061224;28;20032;-79
2021/04/24 06:37:45;;;;;;;12.90;5.90;;;6.90;51.70;;;;;;5059052;28;20012;-79
2021/04/24 06:40:13;;;;;;;32.45;13.13;;;7.10;51.20;;;;;;5062654;28;20517;-79
2021/04/24 06:42:39;;;;;;;5.93;3.40;;;7.30;53.20;;;;;;5056569;28;20029;-80
2021/04/24 06:45:08;;;;;;;9.57;4.90;;;7.30;48.50;;;;;;5060322;28;20098;-79
2021/04/24 06:47:33;;;;;;;8.85;3.70;;;7.40;49.50;;;;;;5064029;28;20025;-80
2021/04/24 06:50:00;;;;;;;10.88;4.75;;;7.60;50.00;;;;;;5070356;28;20383;-79
2021/04/24 06:52:26;;;;;;;16.65;7.28;;;7.60;49.90;;;;;;5071093;28;20097;-77
2021/04/24 06:54:52;;;;;;;7.80;4.43;;;7.60;48.80;;;;;;5068674;28;20533;-79
2021/04/24 06:57:17;;;;;;;17.77;7.93;;;7.40;47.10;;;;;;5064015;28;20016;-78
2021/04/24 06:59:44;;;;;;;12.45;6.43;;;7.30;45.90;;;;;;5068210;28;20028;-78
2021/04/24 07:02:13;;;;;;;9.57;4.78;;;7.30;46.80;;;;;;5073969;28;20013;-78
2021/04/24 07:04:40;;;;;;;14.18;4.93;;;7.50;46.70;;;;;;5075326;28;20020;-77
2021/04/24 07:07:06;;;;;;;10.55;4.88;;;7.60;45.70;;;;;;5072376;28;20062;-77
2021/04/24 07:09:31;;;;;;;7.60;2.80;;;7.70;45.80;;;;;;5075374;28;20024;-78
2021/04/24 07:11:57;;;;;;;6.43;3.40;;;7.90;45.80;;;;;;5067286;28;20431;-77
2021/04/24 07:14:23;;;;;;;14.52;6.35;;;7.90;45.20;;;;;;5068864;28;20534;-78
2021/04/24 07:16:48;;;;;;;6.82;3.47;;;8.00;45.60;;;;;;5063677;28;20128;-78
2021/04/24 07:19:14;;;;;;;8.48;2.65;;;8.00;44.60;;;;;;5065343;28;20032;-78
2021/04/24 07:21:40;;;;;;;3.60;1.85;;;8.10;45.90;;;;;;5069338;28;20025;-79
2021/04/24 07:24:07;;;;;;;4.00;1.90;;;8.00;44.60;;;;;;5073415;28;20032;-78
2021/04/24 07:26:33;;;;;;;5.32;2.30;;;8.20;44.50;;;;;;5073800;28;20040;-79
2021/04/24 07:28:58;;;;;;;8.20;4.05;;;8.60;46.50;;;;;;5066214;28;20025;-79
2021/04/24 07:31:24;;;;;;;3.40;2.13;;;8.70;46.50;;;;;;5065368;28;20500;-79
2021/04/24 07:33:50;;;;;;;7.93;3.28;;;8.70;44.50;;;;;;5062454;28;20046;-80
2021/04/24 07:36:16;;;;;;;2.30;1.83;;;8.70;44.50;;;;;;5065947;28;20027;-80
2021/04/24 07:38:41;;;;;;;7.28;3.60;;;8.90;45.20;;;;;;5064221;28;20462;-79
2021/04/24 07:41:07;;;;;;;7.55;3.75;;;9.00;45.40;;;;;;5063090;28;20017;-79
2021/04/24 07:43:33;;;;;;;5.18;2.22;;;9.00;44.20;;;;;;5060913;28;20032;-79
2021/04/24 07:45:59;;;;;;;5.38;3.35;;;9.10;44.40;;;;;;5072590;28;20032;-78
2021/04/24 07:48:25;;;;;;;3.80;2.33;;;9.20;45.00;;;;;;5073332;28;20029;-79
2021/04/24 07:50:50;;;;;;;4.65;2.60;;;9.20;44.70;;;;;;5074123;28;20029;-73
2021/04/24 07:53:17;;;;;;;6.40;3.42;;;9.40;46.30;;;;;;5073052;28;20013;-73
2021/04/24 07:55:43;;;;;;;4.38;2.45;;;9.50;45.90;;;;;;5073287;28;20051;-73
2021/04/24 07:58:09;;;;;;;7.22;3.03;;;9.60;46.20;;;;;;5073182;28;20071;-73
2021/04/24 08:00:36;;;;;;;4.00;2.67;;;9.50;46.40;;;;;;5066640;28;20032;-73
2021/04/24 08:03:02;;;;;;;6.60;2.90;;;9.60;45.40;;;;;;5064236;28;20120;-72
2021/04/24 08:05:28;;;;;;;6.78;3.08;;;9.60;44.50;;;;;;5072752;28;20123;-74
2021/04/24 08:07:54;;;;;;;5.10;1.83;;;9.70;44.70;;;;;;5071903;28;20032;-73
2021/04/24 08:10:20;;;;;;;6.90;3.88;;;9.50;45.00;;;;;;5070506;28;20017;-74
2021/04/24 08:12:46;;;;;;;6.20;3.40;;;9.40;44.50;;;;;;5069316;28;20520;-73
2021/04/24 08:15:13;;;;;;;4.72;2.85;;;9.60;43.90;;;;;;5074264;28;20088;-73
2021/04/24 08:17:39;;;;;;;5.10;3.20;;;9.60;43.60;;;;;;5072708;28;20052;-73
2021/04/24 08:20:10;;;;;;;6.72;3.42;;;9.80;45.40;;;;;;5073527;28;20056;-73
2021/04/24 08:22:36;;;;;;;5.82;2.95;;;9.60;44.30;;;;;;5072193;28;20078;-73
2021/04/24 08:25:04;;;;;;;7.43;4.03;;;9.20;44.40;;;;;;5072445;28;20390;-74
2021/04/24 08:27:30;;;;;;;4.70;2.67;;;9.30;43.40;;;;;;5071310;28;20074;-73
2021/04/24 08:29:56;;;;;;;5.63;3.17;;;9.60;43.60;;;;;;5073883;28;20025;-74
2021/04/24 08:32:21;;;;;;;9.75;3.60;;;9.80;45.10;;;;;;5073890;28;20033;-73
2021/04/24 08:34:47;;;;;;;8.45;4.05;;;9.90;45.30;;;;;;5072060;28;20021;-73
2021/04/24 08:37:13;;;;;;;7.00;4.30;;;10.20;45.70;;;;;;5073227;28;20017;-73
2021/04/24 08:39:38;;;;;;;6.00;2.88;;;10.40;44.90;;;;;;5070746;28;20039;-74
2021/04/24 08:42:05;;;;;;;6.63;2.75;;;10.60;43.90;;;;;;5073175;28;20018;-74
2021/04/24 08:44:32;;;;;;;5.70;3.15;;;10.90;44.80;;;;;;5068764;28;20020;-74
2021/04/24 08:46:58;;;;;;;8.52;3.90;;;11.20;44.70;;;;;;5070993;28;20066;-74
2021/04/24 08:49:26;;;;;;;5.28;3.38;;;10.70;43.00;;;;;;5070753;28;20143;-74
2021/04/24 08:51:53;;;;;;;6.25;2.85;;;10.30;41.70;;;;;;5071076;28;20052;-73
2021/04/24 08:54:19;;;;;;;8.27;4.88;;;9.90;41.70;;;;;;5070080;28;20033;-73
2021/04/24 08:56:46;;;;;;;6.53;3.45;;;9.90;42.40;;;;;;5072254;28;20031;-73
2021/04/24 08:59:13;;;;;;;5.22;3.53;;;9.70;42.50;;;;;;5071681;28;20028;-74
2021/04/24 09:01:40;;;;;;;6.80;3.92;;;9.50;43.20;;;;;;5070905;28;20084;-73
2021/04/24 09:04:06;;;;;;;6.45;3.47;;;9.40;44.30;;;;;;5070012;28;20524;-74
2021/04/24 09:06:34;;;;;;;7.03;2.85;;;9.60;44.30;;;;;;5071584;28;20028;-73
2021/04/24 09:09:06;;;;;;;6.63;2.60;;;9.80;43.40;;;;;;5072630;28;20036;-74
2021/04/24 09:11:43;;;;;;;7.10;2.53;;;10.00;42.70;;;;;;5071709;28;20485;-74
2021/04/24 09:14:11;;;;;;;10.45;3.85;;;9.80;42.20;;;;;;5072722;28;20027;-74
2021/04/24 09:16:37;;;;;;;8.95;4.65;;;9.70;43.20;;;;;;5073032;28;20025;-73
2021/04/24 09:19:43;;;;;;;11.02;6.43;;;9.50;43.50;;;;;;5072759;28;20024;-73
2021/04/24 09:22:17;;;;;;;8.07;3.80;;;9.50;44.50;;;;;;5071358;28;20098;-74
2021/04/24 09:24:47;;;;;;;7.13;3.45;;;9.30;43.50;;;;;;5070679;28;20074;-74
2021/04/24 09:27:13;;;;;;;6.13;2.97;;;9.60;44.30;;;;;;5071368;28;20028;-73
2021/04/24 09:29:39;;;;;;;6.10;3.30;;;10.00;44.00;;;;;;5072657;28;20444;-74
2021/04/24 09:32:17;;;;;;;5.40;2.97;;;10.00;42.70;;;;;;5071408;28;20025;-73
2021/04/24 09:34:49;;;;;;;6.20;3.00;;;10.30;41.80;;;;;;5071102;28;20055;-73
2021/04/24 09:37:17;;;;;;;4.75;3.05;;;10.50;42.90;;;;;;5069735;28;20037;-73
2021/04/24 09:39:48;;;;;;;7.57;3.72;;;10.20;41.90;;;;;;5071404;28;20036;-74
2021/04/24 09:42:32;;;;;;;4.45;3.05;;;10.20;44.40;;;;;;5072537;28;20028;-73
2021/04/24 09:44:58;;;;;;;6.40;3.10;;;10.30;42.90;;;;;;5069543;28;20331;-73
2021/04/24 09:47:40;;;;;;;6.85;3.35;;;10.20;42.40;;;;;;5070856;28;20107;-73
2021/04/24 09:50:14;;;;;;;6.20;3.63;;;10.20;43.00;;;;;;5072788;28;20079;-74
2021/04/24 09:52:40;;;;;;;6.60;4.03;;;10.30;44.70;;;;;;5072915;28;20048;-73
2021/04/24 09:55:12;;;;;;;6.82;3.28;;;10.10;43.90;;;;;;5071555;28;20020;-73
2021/04/24 09:57:37;;;;;;;6.10;3.35;;;10.00;42.00;;;;;;5072835;28;20044;-73
2021/04/24 10:00:07;;;;;;;6.25;3.53;;;9.90;41.90;;;;;;5072991;28;20471;-73
2021/04/24 10:02:33;;;;;;;7.82;3.72;;;10.00;42.50;;;;;;5073082;28;20025;-74
2021/04/24 10:05:10;;;;;;;6.65;4.07;;;10.20;43.50;;;;;;5069955;28;20036;-73
2021/04/24 10:07:40;;;;;;;5.03;3.45;;;10.50;44.90;;;;;;5051565;28;20062;-73
2021/04/24 10:10:08;;;;;;;5.88;3.42;;;10.50;42.90;;;;;;5052817;28;20071;-73
2021/04/24 10:12:34;;;;;;;5.75;3.55;;;10.40;41.30;;;;;;5052832;28;20020;-74
2021/04/24 10:15:00;;;;;;;6.15;3.25;;;10.50;42.60;;;;;;5070339;28;20039;-74
2021/04/24 10:17:27;;;;;;;9.20;4.20;;;10.60;42.10;;;;;;5066613;28;20513;-73
2021/04/24 10:19:53;;;;;;;4.47;2.83;;;10.80;42.30;;;;;;5061115;28;20059;-72
2021/04/24 10:22:21;;;;;;;5.78;3.15;;;10.70;42.00;;;;;;5065813;28;20050;-73
2021/04/24 10:24:47;;;;;;;5.80;3.08;;;11.20;42.00;;;;;;5071495;28;20492;-72
2021/04/24 10:27:16;;;;;;;7.07;2.85;;;10.80;40.40;;;;;;5071549;28;20107;-73
2021/04/24 10:29:43;;;;;;;8.90;3.35;;;10.50;40.10;;;;;;5070847;28;20070;-74
2021/04/24 10:32:10;;;;;;;8.05;3.40;;;10.20;40.50;;;;;;5069991;28;20078;-74
2021/04/24 10:34:36;;;;;;;8.23;3.40;;;10.00;42.10;;;;;;5069963;28;20450;-74
2021/04/24 10:37:03;;;;;;;6.60;3.53;;;10.00;42.20;;;;;;5066431;28;20060;-73
2021/04/24 10:39:33;;;;;;;14.13;5.38;;;10.30;43.50;;;;;;5065236;28;20389;-75
2021/04/24 10:42:21;;;;;;;9.90;4.35;;;10.60;45.10;;;;;;5070153;28;20478;-74
2021/04/24 10:44:52;;;;;;;4.95;4.28;;;10.70;44.40;;;;;;5070345;28;20027;-74
2021/04/24 10:47:44;;;;;;;13.90;7.25;;;10.70;43.40;;;;;;5068451;28;20032;-73
2021/04/24 10:50:20;;;;;;;8.45;5.95;;;10.80;43.60;;;;;;5072067;28;20099;-74
2021/04/24 10:52:46;;;;;;;6.85;5.03;;;10.80;44.00;;;;;;5069117;28;20059;-74
2021/04/24 10:55:15;;;;;;;3.70;2.95;;;10.80;43.40;;;;;;5070292;28;20504;-73
2021/04/24 10:57:43;;;;;;;7.00;3.70;;;10.80;42.20;;;;;;5070388;28;20099;-73
2021/04/24 11:00:12;;;;;;;4.35;3.15;;;10.60;41.40;;;;;;5070848;28;20028;-74
2021/04/24 11:03:02;;;;;;;5.57;3.17;;;10.60;40.80;;;;;;5069897;28;20056;-73
2021/04/24 11:05:33;;;;;;;3.65;2.83;;;10.70;40.90;;;;;;5066985;28;20036;-74
2021/04/24 11:08:11;;;;;;;5.28;2.88;;;10.60;39.90;;;;;;5068883;28;20021;-77
2021/04/24 11:10:56;;;;;;;4.80;2.80;;;11.10;40.10;;;;;;5070798;28;20028;-73
2021/04/24 11:13:22;;;;;;;10.18;4.55;;;10.90;39.20;;;;;;5069058;28;20470;-73
2021/04/24 11:15:49;;;;;;;12.15;6.78;;;11.00;41.40;;;;;;5070835;28;20100;-74
2021/04/24 11:18:16;;;;;;;9.27;4.43;;;10.80;41.50;;;;;;5085547;28;20051;-73
2021/04/24 11:21:06;;;;;;;6.90;3.75;;;10.90;41.30;;;;;;5071154;28;20130;-73
2021/04/24 11:24:00;;;;;;;6.93;3.28;;;10.90;42.20;;;;;;5071255;28;20020;-73
2021/04/24 11:26:35;;;;;;;8.57;3.50;;;11.00;42.00;;;;;;5066909;28;20459;-73
2021/04/24 11:29:12;;;;;;;8.45;3.78;;;10.90;41.30;;;;;;5071093;28;20063;-74
2021/04/24 11:31:47;;;;;;;6.93;4.03;;;11.20;41.90;;;;;;5071221;28;20028;-74
2021/04/24 11:34:36;;;;;;;6.93;3.63;;;11.10;41.20;;;;;;5070982;28;20016;-74
2021/04/24 11:37:31;;;;;;;11.30;4.22;;;11.10;40.50;;;;;;5076523;28;20021;-74
2021/04/24 11:40:14;;;;;;;10.32;3.60;;;11.10;40.40;;;;;;5061584;28;20079;-74
2021/04/24 11:42:55;;;;;;;7.97;4.20;;;11.10;40.80;;;;;;5069912;28;20097;-74
2021/04/24 11:46:01;;;;;;;8.70;3.88;;;11.20;40.90;;;;;;5074441;28;20032;-74
2021/04/24 11:48:48;;;;;;;17.15;6.80;;;11.20;39.80;;;;;;5031000;28;20484;-74
2021/04/24 11:51:34;;;;;;;13.20;4.95;;;11.40;38.80;;;;;;5024888;28;20033;-74
2021/04/24 11:54:01;;;;;;;8.95;3.30;;;11.60;39.10;;;;;;5054899;28;20486;-74
2021/04/24 11:56:27;;;;;;;8.52;4.28;;;11.80;38.60;;;;;;5069006;28;20025;-74
2021/04/24 11:58:53;;;;;;;9.45;3.42;;;12.00;38.40;;;;;;5066143;28;20048;-74
2021/04/24 12:01:26;;;;;;;12.00;5.53;;;12.20;38.70;;;;;;5074435;28;20100;-74
2021/04/24 12:03:53;;;;;;;21.38;8.48;;;12.20;37.90;;;;;;5068119;28;20060;-74
2021/04/24 12:06:41;;;;;;;55.72;20.70;;;12.30;38.10;;;;;;5072907;28;20116;-74
2021/04/24 12:09:12;;;;;;;198.45;71.05;;;12.50;38.70;;;;;;5072064;28;20059;-74
2021/04/24 12:11:53;;;;;;;48.40;16.33;;;12.50;37.50;;;;;;5074024;28;20052;-73
2021/04/24 12:14:20;;;;;;;12.18;5.15;;;12.40;37.50;;;;;;5074315;28;20074;-74
2021/04/24 12:16:47;;;;;;;116.78;46.60;;;12.40;37.60;;;;;;5073989;28;20486;-73
2021/04/24 12:19:31;;;;;;;56.40;22.48;;;12.30;37.90;;;;;;5073933;28;21057;-71
2021/04/24 12:22:20;;;;;;;20.48;8.55;;;12.20;37.30;;;;;;5071500;28;20021;-72
2021/04/24 12:24:53;;;;;;;193.18;72.35;;;12.40;37.40;;;;;;5074072;28;22373;-71
2021/04/24 12:27:45;;;;;;;115.68;43.03;;;12.70;38.70;;;;;;5072964;28;20401;-72
2021/04/24 12:30:17;;;;;;;18.13;7.22;;;12.30;36.70;;;;;;5069123;28;20490;-72
2021/04/24 12:33:04;;;;;;;101.50;33.65;;;11.90;36.90;;;;;;5072295;28;20025;-72
2021/04/24 12:35:32;;;;;;;36.40;12.27;;;12.00;37.50;;;;;;5062130;28;20119;-72
2021/04/24 12:38:05;;;;;;;69.43;21.30;;;12.00;36.90;;;;;;5073705;28;20013;-72
2021/04/24 12:40:35;;;;;;;63.53;20.00;;;11.90;36.10;;;;;;5072270;28;20024;-72
2021/04/24 12:43:08;;;;;;;49.85;15.32;;;12.00;36.30;;;;;;5072499;28;20017;-72
2021/04/24 12:45:37;;;;;;;15.95;5.95;;;12.30;35.40;;;;;;5066795;28;20150;-72
2021/04/24 12:48:04;;;;;;;5.22;3.50;;;12.20;35.50;;;;;;5063680;28;20021;-72
2021/04/24 12:50:38;;;;;;;6.53;2.78;;;12.10;36.00;;;;;;5064662;28;20029;-72